Home PIREPS Pireps

Flight SAB5825

  • Submitted By: Carl Hermans
  • Departure Airport: Bruxelles National (EBBR)
  • Arrival Airport: Heathrow (EGLL)
  • Aircraft: B737-500 (OO-SAB)
  • Flight Time: 01.08
  • Date Submitted: 09/12/2016
  • Status: Accepted
Flight Details
Gross Revenue:
(119 load / € 0.00 per unit
€ 0.00
Fuel Cost:
(1389 fuel used @ 5.1 / unit)
€ 7,083.90

Additional Log Information:

View Log

Aircraft Used in flight is x737-800_v502 Brussels Airlines
18:39 Engine 1 Started
18:39 Engine 2 Started
18:39 Engine 3 Started
18:39 Engine 4 Started
18:39 Strobe Lights ON at 150 AGL
18:39 Navigation Lights ON at 150 AGL
18:39 Beacon Lights ON at 150 AGL
18:39 Brakes are On
18:43Flaps 3 Selected at 150ft and 7kts
18:45 Brakes are Released
18:46 Brakes are On
18:46 Brakes are Released
18:49 Brakes are On
18:49 Brakes are Released
18:49 Brakes are On
18:49 Brakes are Released
18:49 Brakes are On
18:49 Brakes are Released
18:49 Brakes are On
18:49 Brakes are Released
18:50 Brakes are On
18:50 Brakes are Released
18:50 You Took off @ 156 Knots and Flaps at Position 3
Departure Weather
EBBR 091720Z 21009KT CAVOK 09/06 Q1028 NOSIGrn
18:51 Landing Gear Up @ 197 Knots and 220 Feet
18:51Flaps Retracted at 290ft and 202kts
18:51 You exceeded maximum bank angle
18:52 Below 10000 feet you are not allowed to go over 250 knots
19:10 Above FL100 you need to switch of the landing lights
19:37Flaps 1 Selected at 3330ft and 250kts
19:37Flaps 2 Selected at 3340ft and 249kts
19:37Flaps 3 Selected at 3350ft and 248kts
19:40Flaps 4 Selected at 1660ft and 219kts
19:40 Landing Gear Down @ 222 Knots and 1400 Feet
19:41Flaps 7 Selected at 770ft and 158kts
19:43 You Landed @ 119 Knots and with -850 Vertical Speed
Arrival Weather
EGLL 091820Z 20010KT 7000 NSC 11/10 Q1024 TEMPO BKN006rn
19:43 Your Landing was very hard
19:43 Brakes are On
19:43 Brakes are Released
19:43 Brakes are On
19:43Flaps 1 Selected at 90ft and 4kts
19:43Flaps Retracted at 90ft and 3kts
19:44 Taxi Lights ON at 90 AGL
19:44 Brakes are Released
19:48 Brakes are On
19:48 Brussels Bel-Track1.0.0.11

Route Map

Corporate About Us Our Team Vacancies Information Fleet Route Network Rules and Regulations Operations Flight Schedules Event Center Tours Partners IVAO Vatsim Acars dev FSCB

fb Users Online Belgium Roger Wijns, United Kingdom David Chenery,
2 Pilot(s) and 173 Guest(s) Online
CMS by phpVMS - Design by Crazycreatives.com - Copyright © 2018 - Brussels Airlines Virtual